Station: Robe Airport  

  Atmospheric Gas Attenuation - ITU Rec 676-11   ----------------- dB/100km -----------------
Date Time Temp RH % AH g/m3 Dew Point Wind Direction Speed kph Gust kph Barometer mB Rainfall Since 9am 24GHz 47GHz 76GHz 122GHz 134GHz 241GHz
05/09 01:40 15.7 84 11.24 13 28 43 1004.4 1.4 25.2 29.4 49.2 129.8 130.7 451.8
05/09 01:30 15.8 84 11.31 13.1 30 43 1004.4 1.4 25.3 29.5 49.5 130.4 131.5 454.7
05/09 01:20 15.3 85 11.1 12.8 28 37 1004.3 1.4 24.9 29.3 48.9 128.9 129.4 447.3
05/09 01:10 15.2 84 10.9 12.5 32 41 1004.2 1.4 24.5 28.9 48.1 126.7 126.8 438.0
05/09 01:00 15.1 84 10.84 12.4 32 39 1004.1 1.4 24.3 28.9 47.9 126.2 126.1 435.6
05/09 00:50 15.4 83 10.9 12.5 33 48 1004.4 1.4 24.4 28.9 48.0 126.4 126.5 436.9
05/09 00:40 15.1 84 10.84 12.4 30 43 1004.2 1.4 24.3 28.9 47.9 126.2 126.1 435.7
05/09 00:30 15 83 10.64 12.1 32 41 1004.4 1.4 23.9 28.6 47.1 124.1 123.5 426.6
05/09 00:20 14.9 83 10.58 12 32 46 1004.6 1.4 23.8 28.5 46.9 123.7 122.9 424.3
05/09 00:10 14.7 84 10.58 12 32 44 1004.4 1.4 23.8 28.6 47.1 123.9 123.2 425.3
05/09 00:00 14.5 84 10.45 11.8 28 39 1004.7 1.4 23.5 28.4 46.6 122.8 121.7 420.2
04/09 23:50 14.5 84 10.45 11.8 28 44 1004.9 1.4 23.5 28.4 46.7 122.9 121.7 420.2
04/09 23:40 14.3 85 10.44 11.8 26 37 1004.8 1.4 23.5 28.5 46.7 123.1 121.9 420.8
04/09 23:30 14.4 84 10.38 11.7 30 43 1004.9 1.4 23.4 28.3 46.4 122.2 120.9 417.4
04/09 23:20 14.7 85 10.7 12.2 30 44 1004.8 1.4 24.1 28.8 47.6 125.4 124.9 431.3
04/09 23:10 14.2 86 10.5 11.9 26 37 1005 1.4 23.7 28.6 47.0 123.9 122.9 424.3
04/09 23:00 14.5 85 10.57 12 28 43 1005.2 1.4 23.8 28.6 47.2 124.3 123.4 426.2
04/09 22:50 14.1 86 10.44 11.8 28 35 1005.5 1.4 23.5 28.6 46.9 123.5 122.3 422.1
04/09 22:40 14 87 10.49 11.9 22 32 1005.9 1.4 23.6 28.7 47.2 124.2 123.2 425.3
04/09 22:30 14.1 87 10.56 12 20 30 1006 1.4 23.8 28.8 47.4 124.9 124.0 428.2
04/09 22:20 14.2 87 10.62 12.1 20 30 1006.3 1.4 23.9 28.9 47.6 125.4 124.7 430.7
04/09 22:10 14.2 87 10.62 12.1 22 32 1006.5 1.4 23.9 28.9 47.6 125.5 124.7 430.7
04/09 22:00 14.3 87 10.69 12.2 22 30 1006.6 1.4 24.1 29.0 47.9 126.1 125.6 433.6
04/09 21:50 14.4 87 10.75 12.3 22 32 1006.7 1.4 24.2 29.0 48.1 126.6 126.3 436.1
04/09 21:40 14.4 88 10.88 12.4 22 32 1006.9 1.4 24.5 29.3 48.6 128.2 128.1 442.5
04/09 21:30 14.4 88 10.88 12.4 22 32 1007 1.4 24.5 29.3 48.7 128.2 128.1 442.6
04/09 21:20 14.5 88 10.95 12.5 26 35 1007.2 1.4 24.6 29.4 48.9 128.8 129.0 445.5
04/09 21:10 14.5 88 10.95 12.5 22 32 1007.3 1.4 24.6 29.4 48.9 128.8 129.0 445.5
04/09 21:00 14.5 89 11.07 12.7 20 28 1007.4 1.4 24.9 29.6 49.4 130.2 130.7 451.5
04/09 20:50 14.4 89 11 12.6 24 33 1007.3 1.4 24.7 29.5 49.2 129.6 129.9 448.6
04/09 20:40 14.2 90 10.99 12.6 24 33 1007.3 1.4 24.7 29.6 49.3 129.8 130.1 449.3
04/09 20:30 14.1 90 10.92 12.5 24 32 1007.5 1.4 24.6 29.5 49.0 129.2 129.3 446.4
04/09 20:20 14 90 10.86 12.4 26 35 1007.5 1.4 24.4 29.4 48.8 128.7 128.6 444.0
04/09 20:10 14 90 10.86 12.4 24 32 1007.8 1.4 24.4 29.4 48.9 128.7 128.6 444.2
04/09 20:00 13.9 91 10.91 12.5 24 35 1007.9 1.4 24.6 29.5 49.1 129.5 129.5 447.3
04/09 19:50 14 90 10.86 12.4 24 35 1007.9 1.4 24.4 29.4 48.9 128.7 128.6 444.2
04/09 19:40 13.9 91 10.91 12.5 24 33 1008 1.4 24.6 29.5 49.1 129.5 129.5 447.3
04/09 19:30 13.8 91 10.84 12.4 24 39 1008.3 1.4 24.4 29.5 48.9 128.9 128.7 444.5
04/09 19:20 13.8 91 10.84 12.4 22 30 1008.4 1.4 24.4 29.5 48.9 128.9 128.7 444.5
04/09 19:10 13.8 91 10.84 12.4 22 30 1008.4 1.4 24.4 29.5 48.9 128.9 128.7 444.5
04/09 19:00 13.7 91 10.78 12.3 20 30 1008.5 1.4 24.3 29.4 48.7 128.4 128.0 442.1
04/09 18:50 13.6 91 10.71 12.2 19 32 1008.6 1.4 24.1 29.3 48.5 127.7 127.2 439.3
04/09 18:40 13.6 91 10.71 12.2 19 24 1008.7 1.4 24.1 29.3 48.5 127.7 127.2 439.3
04/09 18:30 13.6 91 10.71 12.2 19 26 1008.7 1.4 24.1 29.3 48.5 127.7 127.2 439.3
04/09 18:20 13.7 92 10.89 12.4 19 26 1008.9 1.4 24.5 29.6 49.2 129.7 129.6 447.8
04/09 18:10 13.7 92 10.89 12.4 17 22 1009 1.4 24.5 29.6 49.2 129.7 129.7 447.8
04/09 18:00 13.7 92 10.89 12.4 15 20 1009.2 1.4 24.5 29.6 49.2 129.7 129.7 447.9
04/09 17:50 13.8 92 10.96 12.5 17 22 1008.9 1.4 24.7 29.7 49.5 130.3 130.5 450.7
04/09 17:40 13.9 92 11.03 12.6 13 19 1009 1.4 24.8 29.8 49.7 131.0 131.3 453.6
04/09 17:30 13.9 92 11.03 12.6 11 15 1009.4 1.4 24.8 29.8 49.7 131.0 131.4 453.8
04/09 17:20 13.9 92 11.03 12.6 13 19 1009.7 1.4 24.8 29.8 49.8 131.1 131.4 453.9
04/09 17:10 13.9 92 11.03 12.6 11 17 1009.8 1.4 24.8 29.8 49.8 131.1 131.4 453.9
04/09 17:00 14 91 10.98 12.6 11 17 1010 1 24.7 29.7 49.5 130.4 130.5 450.9
04/09 16:50 14 91 10.98 12.6 15 20 1010 1 24.7 29.7 49.5 130.4 130.5 450.9
04/09 16:40 14 90 10.86 12.4 13 20 1009.9 0.8 24.4 29.5 49.0 129.0 128.8 444.9
04/09 16:30 14.2 88 10.75 12.2 19 24 1010.2 0.4 24.2 29.3 48.4 127.4 126.9 438.4
04/09 16:20 14.3 87 10.69 12.2 19 26 1010 0.2 24.1 29.1 48.0 126.5 125.9 434.8
04/09 16:10 14.5 86 10.7 12.2 19 24 1009.9 0.2 24.1 29.1 48.0 126.3 125.7 434.1
04/09 16:00 14.6 84 10.51 11.9 20 26 1010 0.2 23.6 28.7 47.1 124.0 122.9 424.3
04/09 15:50 14.8 83 10.51 11.9 17 24 1010.1 0.2 23.6 28.6 47.0 123.7 122.6 423.2
04/09 15:40 14.8 81 10.26 11.6 17 20 1010.5 0.2 23.1 28.2 45.9 120.9 119.2 411.3
04/09 15:30 14.8 81 10.26 11.6 15 20 1010.5 0.2 23.1 28.2 45.9 120.9 119.2 411.3
04/09 15:20 14.8 81 10.26 11.6 19 24 1010.9 0.2 23.1 28.2 46.0 120.9 119.2 411.4
04/09 15:10 14.9 80 10.2 11.5 19 26 1011.3 0.2 23.0 28.1 45.7 120.2 118.3 408.1
04/09 15:00 15 78 10 11.2 19 28 1011.5 0.2 22.5 27.8 44.8 117.8 115.4 398.1
04/09 14:50 15.1 76 9.8 10.9 24 32 1011.4 0.2 22.1 27.4 43.9 115.4 112.5 388.1
04/09 14:40 15.3 76 9.92 11.1 22 32 1011.2 0.2 22.3 27.5 44.3 116.4 113.8 392.7
04/09 14:30 15.6 76 10.11 11.4 20 28 1011.1 0.2 22.7 27.7 44.9 118.1 115.9 400.1
04/09 14:20 15.6 77 10.24 11.6 19 30 1010.7 0.2 23.0 27.9 45.4 119.5 117.7 406.2
04/09 14:10 15.4 76 9.99 11.2 22 37 1011.2 0.2 22.5 27.6 44.5 117.1 114.6 395.5
04/09 14:00 15.3 75 9.79 10.9 28 37 1011.6 0.2 22.1 27.3 43.8 115.1 112.1 386.6
04/09 13:50 15.6 76 10.11 11.4 24 32 1011.7 0.2 22.7 27.8 44.9 118.1 116.0 400.3
04/09 13:40 15.4 76 9.99 11.2 28 39 1011.9 0.2 22.5 27.6 44.5 117.1 114.7 395.7
04/09 13:30 15.4 76 9.99 11.2 32 44 1012.3 0.2 22.5 27.7 44.6 117.2 114.7 395.8
04/09 13:20 15.3 79 10.32 11.7 28 41 1012.5 0.2 23.2 28.2 46.0 121.0 119.4 412.2
04/09 13:10 14.9 79 10.07 11.3 26 37 1013 0.2 22.7 28.0 45.2 118.9 116.6 402.4
04/09 13:00 14.8 79 10.01 11.2 30 41 1013.1 0.2 22.6 27.9 45.0 118.4 116.0 400.1
04/09 12:50 14.6 80 10.01 11.2 30 37 1013.1 0.2 22.6 28.0 45.1 118.7 116.3 401.1
04/09 12:40 14.5 83 10.32 11.7 30 39 1013.3 0.2 23.2 28.5 46.5 122.4 120.7 416.7
04/09 12:30 14.3 81 9.95 11.1 30 41 1013.6 0 22.5 28.0 45.1 118.6 115.9 399.9
04/09 12:20 14.6 80 10.01 11.2 32 39 1014.1 0 22.6 28.0 45.2 118.8 116.4 401.4
04/09 12:10 14.7 78 9.82 10.9 35 46 1014.2 0 22.2 27.7 44.3 116.6 113.6 391.9
04/09 12:00 15.3 74 9.66 10.7 35 48 1014.4 0 21.8 27.2 43.4 114.0 110.6 381.4
04/09 11:50 15.3 74 9.66 10.7 30 44 1014.5 0 21.8 27.2 43.4 114.0 110.6 381.4
04/09 11:40 15.3 72 9.4 10.3 32 43 1014.7 0 21.2 26.8 42.3 111.2 107.1 369.3
04/09 11:30 15.3 72 9.4 10.3 35 46 1014.8 0 21.2 26.8 42.3 111.2 107.2 369.3
04/09 11:20 14.8 73 9.25 10 32 43 1015.1 0 20.9 26.7 42.0 110.3 105.9 364.8
04/09 11:10 15.2 72 9.35 10.2 32 41 1015.2 0 21.1 26.8 42.2 110.8 106.7 367.6
04/09 11:00 14.5 72 8.96 9.5 28 41 1015 0 20.3 26.3 41.0 107.6 102.4 352.6
04/09 10:50 14.7 74 9.32 10.1 26 33 1015.5 0 21.1 26.9 42.3 111.2 107.0 368.6
04/09 10:40 14.2 74 9.04 9.6 30 44 1015.6 0 20.5 26.6 41.5 108.9 103.9 357.8
04/09 10:30 14.2 74 9.04 9.6 28 35 1015.9 0 20.5 26.6 41.5 108.9 103.9 357.9
04/09 10:20 14.2 75 9.16 9.8 22 30 1016 0 20.8 26.8 42.0 110.2 105.6 363.6
04/09 10:10 14.1 75 9.1 9.7 22 32 1016.1 0 20.6 26.7 41.8 109.7 104.9 361.3
04/09 10:00 14.1 74 8.98 9.5 24 33 1016.1 0 20.4 26.5 41.3 108.4 103.3 355.6
04/09 09:50 14.4 70 8.65 9 26 32 1016.2 0 19.7 25.9 39.8 104.5 98.5 339.0
04/09 09:40 14.4 72 8.9 9.4 24 35 1016.1 0 20.2 26.3 40.8 107.2 101.8 350.6
04/09 09:30 14.1 75 9.1 9.7 22 30 1016.3 0 20.6 26.7 41.8 109.8 104.9 361.3
04/09 09:20 13.8 74 8.82 9.3 24 30 1016.4 0 20.1 26.4 40.8 107.2 101.6 349.6
04/09 09:10 13.8 74 8.82 9.3 22 30 1016.5 0 20.1 26.4 40.8 107.2 101.6 349.6

Last Refresh: 05-Sep-2026 01:53:25

Bureau of Meteorology